»·PEaware :: N8107T KLAS-KLAX

N8107T :: KLAS-KLAX

FLIGHT INFORMATION

Flight Status: Arrived
Operator: Privately registered:
United States
More flights under this callsign
Pilot: Charan K. (66)
Aircraft: AIRBUS A300ST Super Transporter
(A3ST)
More flights by this aircraft type
Origin: KLAS McCarran Intl
United States
Destination: KLAX Los Angeles Intl
United States
More flights between these airports :: More routes between these airports
Route: +BOACH4 HEC RIIVR2
File this flight plan on PilotEdge
Remarks: / V /
Altitude:
(Current/Filed)
32,000ft
Speed:
(Current/Filed)
420kts
Departed: 22-Jun-11 08:17 PM
Arrived: 22-Jun-11 08:59 PM
Distance/Time
Traveled:
205nm/0:42
Distance/Time
To Go:
Arrived

Flight Plot

Page will automatically refresh every two minutes.


Map Options




Map Legend


Flown Route
Filed Route
Departure Airport
Arrival Airport
Navaid (VOR, NDB)
Fix

Horizontal Profiles

Position Reports

Time Latitude Longitude Heading Altitude Ground
Speed
22-Jun-11 20:09 36.078667 -115.125103 90 2199ft 0kts
22-Jun-11 20:10 36.078667 -115.125097 90 2199ft 0kts
22-Jun-11 20:11 36.078667 -115.125093 90 2199ft 0kts
22-Jun-11 20:12 36.078667 -115.125088 91 2199ft 0kts
22-Jun-11 20:13 36.078592 -115.124567 100 2199ft 8kts
22-Jun-11 20:14 36.077503 -115.121740 114 2199ft 0kts
22-Jun-11 20:15 36.076719 -115.121310 171 2199ft 8kts
22-Jun-11 20:16 36.076491 -115.142771 273 2269ft 190kts
22-Jun-11 20:17 36.079927 -115.226704 272 5053ft 276kts
22-Jun-11 20:18 36.041554 -115.292492 187 6600ft 280kts
22-Jun-11 20:19 35.963955 -115.285087 173 7802ft 270kts
22-Jun-11 20:20 35.889215 -115.306477 200 9527ft 279kts
22-Jun-11 20:21 35.815427 -115.340785 192 11225ft 288kts
22-Jun-11 20:22 35.734615 -115.333248 172 12958ft 293kts
22-Jun-11 20:23 35.656580 -115.346399 211 14881ft 297kts
22-Jun-11 20:24 35.581982 -115.426431 225 15951ft 370kts
22-Jun-11 20:27 35.374753 -115.701353 228 21390ft 412kts
22-Jun-11 20:28 35.296286 -115.805809 229 23405ft 419kts
22-Jun-11 20:29 35.216546 -115.911679 229 25407ft 424kts
22-Jun-11 20:30 35.135359 -116.019051 229 27423ft 426kts
22-Jun-11 20:31 35.056241 -116.123260 229 29414ft 408kts
22-Jun-11 20:32 34.977722 -116.226603 229 31419ft 420kts
22-Jun-11 20:33 34.896357 -116.333334 229 31861ft 437kts
22-Jun-11 20:34 34.812127 -116.442617 228 31860ft 444kts
22-Jun-11 20:35 34.717611 -116.542165 221 31876ft 446kts
22-Jun-11 20:36 34.621705 -116.630703 220 30882ft 424kts
22-Jun-11 20:37 34.533510 -116.711537 221 28490ft 371kts
22-Jun-11 20:38 34.451162 -116.788298 220 25996ft 373kts
22-Jun-11 20:39 34.368728 -116.865484 219 23535ft 385kts
22-Jun-11 20:40 34.280248 -116.948007 219 21358ft 396kts
22-Jun-11 20:41 34.197072 -117.025102 219 19339ft 364kts
22-Jun-11 20:42 34.119702 -117.101030 228 17569ft 350kts
22-Jun-11 20:43 34.066684 -117.197462 242 15820ft 338kts
22-Jun-11 20:44 34.040888 -117.303941 261 14019ft 328kts
22-Jun-11 20:45 34.032058 -117.415274 265 12221ft 335kts
22-Jun-11 20:46 34.025426 -117.526341 265 10410ft 319kts
22-Jun-11 20:47 34.017241 -117.625985 262 9948ft 292kts
22-Jun-11 20:48 34.005909 -117.724282 261 9906ft 297kts
22-Jun-11 20:49 33.994363 -117.821128 262 8870ft 284kts
22-Jun-11 20:50 33.986505 -117.914911 264 7827ft 276kts
22-Jun-11 20:51 33.977824 -118.008784 259 6956ft 276kts
22-Jun-11 20:52 33.965371 -118.097358 262 5163ft 256kts
22-Jun-11 20:53 33.959093 -118.177103 263 3777ft 223kts
22-Jun-11 20:54 33.952253 -118.242542 262 2531ft 163kts
22-Jun-11 20:55 33.947282 -118.296050 262 1237ft 157kts
22-Jun-11 20:56 33.941806 -118.345707 258 532ft 146kts
22-Jun-11 20:57 33.937138 -118.387393 261 145ft 101kts
22-Jun-11 20:58 33.934807 -118.402270 225 144ft 12kts
22-Jun-11 20:59 33.934709 -118.402389 225 144ft 0kts
22-Jun-11 21:00 33.933163 -118.402998 174 144ft 0kts

Navigation Log

Ident Type
Flight plan parsing failed, navigation log unavailable